sensor_id;sensor_type;location;lat;lon;timestamp;P1;durP1;ratioP1;P2;durP2;ratioP2
71303;SDS011;59091;47.446;19.148;2022-12-20T00:02:23;61.40;;;23.65;;
71303;SDS011;59091;47.446;19.148;2022-12-20T00:04:49;65.45;;;23.33;;
71303;SDS011;59091;47.446;19.148;2022-12-20T00:07:15;57.65;;;23.02;;
71303;SDS011;59091;47.446;19.148;2022-12-20T00:09:40;61.63;;;26.00;;
71303;SDS011;59091;47.446;19.148;2022-12-20T00:12:05;57.92;;;24.40;;
71303;SDS011;59091;47.446;19.148;2022-12-20T00:14:31;59.30;;;23.65;;
71303;SDS011;59091;47.446;19.148;2022-12-20T00:16:56;55.47;;;23.25;;
71303;SDS011;59091;47.446;19.148;2022-12-20T00:19:22;56.83;;;22.60;;
71303;SDS011;59091;47.446;19.148;2022-12-20T00:21:47;58.45;;;25.67;;
71303;SDS011;59091;47.446;19.148;2022-12-20T00:24:13;61.10;;;25.55;;
71303;SDS011;59091;47.446;19.148;2022-12-20T00:26:38;54.53;;;23.65;;
71303;SDS011;59091;47.446;19.148;2022-12-20T00:29:04;57.92;;;24.08;;
71303;SDS011;59091;47.446;19.148;2022-12-20T00:31:30;57.30;;;24.20;;
71303;SDS011;59091;47.446;19.148;2022-12-20T00:33:56;52.55;;;22.10;;
71303;SDS011;59091;47.446;19.148;2022-12-20T00:36:23;55.88;;;23.35;;
71303;SDS011;59091;47.446;19.148;2022-12-20T00:38:51;52.35;;;22.23;;
71303;SDS011;59091;47.446;19.148;2022-12-20T00:41:19;64.57;;;24.38;;
71303;SDS011;59091;47.446;19.148;2022-12-20T00:43:46;59.35;;;23.77;;
71303;SDS011;59091;47.446;19.148;2022-12-20T00:46:13;51.97;;;22.73;;
71303;SDS011;59091;47.446;19.148;2022-12-20T00:48:40;50.58;;;22.05;;
71303;SDS011;59091;47.446;19.148;2022-12-20T00:51:07;58.97;;;22.13;;
71303;SDS011;59091;47.446;19.148;2022-12-20T00:53:35;60.08;;;23.63;;
71303;SDS011;59091;47.446;19.148;2022-12-20T00:56:01;61.05;;;23.52;;
71303;SDS011;59091;47.446;19.148;2022-12-20T00:58:27;58.88;;;22.92;;
71303;SDS011;59091;47.446;19.148;2022-12-20T01:00:53;57.53;;;23.00;;
71303;SDS011;59091;47.446;19.148;2022-12-20T01:03:19;56.58;;;22.40;;
71303;SDS011;59091;47.446;19.148;2022-12-20T01:05:49;57.65;;;22.38;;
71303;SDS011;59091;47.446;19.148;2022-12-20T01:08:15;59.22;;;22.98;;
71303;SDS011;59091;47.446;19.148;2022-12-20T01:10:41;58.30;;;23.52;;
71303;SDS011;59091;47.446;19.148;2022-12-20T01:13:06;49.50;;;20.17;;
71303;SDS011;59091;47.446;19.148;2022-12-20T01:15:32;49.75;;;21.83;;
71303;SDS011;59091;47.446;19.148;2022-12-20T01:17:57;54.65;;;20.80;;
71303;SDS011;59091;47.446;19.148;2022-12-20T01:20:23;50.05;;;21.30;;
71303;SDS011;59091;47.446;19.148;2022-12-20T01:22:48;60.42;;;21.45;;
71303;SDS011;59091;47.446;19.148;2022-12-20T01:25:15;52.00;;;21.33;;
71303;SDS011;59091;47.446;19.148;2022-12-20T01:27:40;62.75;;;23.10;;
71303;SDS011;59091;47.446;19.148;2022-12-20T01:30:06;49.50;;;21.20;;
71303;SDS011;59091;47.446;19.148;2022-12-20T01:32:32;57.45;;;22.25;;
71303;SDS011;59091;47.446;19.148;2022-12-20T01:34:57;52.67;;;22.65;;
71303;SDS011;59091;47.446;19.148;2022-12-20T01:37:22;64.43;;;23.17;;
71303;SDS011;59091;47.446;19.148;2022-12-20T01:39:48;56.88;;;22.92;;
71303;SDS011;59091;47.446;19.148;2022-12-20T01:42:13;58.25;;;21.30;;
71303;SDS011;59091;47.446;19.148;2022-12-20T01:47:08;53.15;;;20.65;;
71303;SDS011;59091;47.446;19.148;2022-12-20T01:49:37;52.42;;;21.88;;
71303;SDS011;59091;47.446;19.148;2022-12-20T01:52:23;62.40;;;22.02;;
71303;SDS011;59091;47.446;19.148;2022-12-20T01:54:55;54.60;;;22.15;;
71303;SDS011;59091;47.446;19.148;2022-12-20T01:57:55;48.50;;;22.73;;
71303;SDS011;59091;47.446;19.148;2022-12-20T02:00:25;56.28;;;21.52;;
71303;SDS011;59091;47.446;19.148;2022-12-20T02:02:51;56.53;;;23.80;;
71303;SDS011;59091;47.446;19.148;2022-12-20T02:05:18;56.00;;;23.02;;
71303;SDS011;59091;47.446;19.148;2022-12-20T02:07:47;49.28;;;21.75;;
71303;SDS011;59091;47.446;19.148;2022-12-20T02:10:16;58.38;;;23.02;;
71303;SDS011;59091;47.446;19.148;2022-12-20T02:12:45;53.38;;;20.95;;
71303;SDS011;59091;47.446;19.148;2022-12-20T02:15:31;53.22;;;23.02;;
71303;SDS011;59091;47.446;19.148;2022-12-20T02:20:58;53.53;;;20.42;;
71303;SDS011;59091;47.446;19.148;2022-12-20T02:23:45;54.47;;;22.33;;
71303;SDS011;59091;47.446;19.148;2022-12-20T02:34:40;62.58;;;21.63;;
71303;SDS011;59091;47.446;19.148;2022-12-20T02:37:06;49.65;;;20.33;;
71303;SDS011;59091;47.446;19.148;2022-12-20T02:39:32;45.97;;;20.73;;
71303;SDS011;59091;47.446;19.148;2022-12-20T02:42:00;46.05;;;19.17;;
71303;SDS011;59091;47.446;19.148;2022-12-20T02:44:48;47.70;;;20.50;;
71303;SDS011;59091;47.446;19.148;2022-12-20T02:47:36;52.67;;;21.27;;
71303;SDS011;59091;47.446;19.148;2022-12-20T02:50:06;50.30;;;21.23;;
71303;SDS011;59091;47.446;19.148;2022-12-20T02:52:32;54.33;;;21.17;;
71303;SDS011;59091;47.446;19.148;2022-12-20T02:54:59;47.08;;;20.67;;
71303;SDS011;59091;47.446;19.148;2022-12-20T02:57:26;50.55;;;21.50;;
71303;SDS011;59091;47.446;19.148;2022-12-20T03:02:32;48.33;;;20.17;;
71303;SDS011;59091;47.446;19.148;2022-12-20T03:05:18;47.40;;;21.10;;
71303;SDS011;59091;47.446;19.148;2022-12-20T03:07:46;51.83;;;19.75;;
71303;SDS011;59091;47.446;19.148;2022-12-20T03:10:12;47.80;;;20.45;;
71303;SDS011;59091;47.446;19.148;2022-12-20T03:12:37;50.83;;;19.55;;
71303;SDS011;59091;47.446;19.148;2022-12-20T03:15:03;45.90;;;20.73;;
71303;SDS011;59091;47.446;19.148;2022-12-20T03:17:29;45.03;;;19.25;;
71303;SDS011;59091;47.446;19.148;2022-12-20T03:19:54;52.30;;;20.27;;
71303;SDS011;59091;47.446;19.148;2022-12-20T03:22:19;49.88;;;20.63;;
71303;SDS011;59091;47.446;19.148;2022-12-20T03:24:45;55.13;;;21.05;;
71303;SDS011;59091;47.446;19.148;2022-12-20T03:27:11;52.05;;;19.92;;
71303;SDS011;59091;47.446;19.148;2022-12-20T03:29:36;41.75;;;19.15;;
71303;SDS011;59091;47.446;19.148;2022-12-20T03:32:02;43.95;;;19.35;;
71303;SDS011;59091;47.446;19.148;2022-12-20T03:34:27;44.53;;;19.08;;
71303;SDS011;59091;47.446;19.148;2022-12-20T03:36:53;47.58;;;19.92;;
71303;SDS011;59091;47.446;19.148;2022-12-20T03:39:19;48.08;;;20.13;;
71303;SDS011;59091;47.446;19.148;2022-12-20T03:41:44;39.67;;;16.95;;
71303;SDS011;59091;47.446;19.148;2022-12-20T03:44:10;45.25;;;19.30;;
71303;SDS011;59091;47.446;19.148;2022-12-20T03:46:35;46.55;;;18.92;;
71303;SDS011;59091;47.446;19.148;2022-12-20T03:49:01;45.55;;;18.70;;
71303;SDS011;59091;47.446;19.148;2022-12-20T03:51:26;49.75;;;19.00;;
71303;SDS011;59091;47.446;19.148;2022-12-20T03:53:51;35.08;;;16.70;;
71303;SDS011;59091;47.446;19.148;2022-12-20T03:56:17;47.33;;;19.00;;
71303;SDS011;59091;47.446;19.148;2022-12-20T03:58:43;38.15;;;17.75;;
71303;SDS011;59091;47.446;19.148;2022-12-20T04:01:22;41.78;;;18.45;;
71303;SDS011;59091;47.446;19.148;2022-12-20T04:03:51;46.17;;;18.97;;
71303;SDS011;59091;47.446;19.148;2022-12-20T04:06:17;47.03;;;18.48;;
71303;SDS011;59091;47.446;19.148;2022-12-20T04:08:43;41.28;;;18.30;;
71303;SDS011;59091;47.446;19.148;2022-12-20T04:11:09;45.63;;;17.85;;
71303;SDS011;59091;47.446;19.148;2022-12-20T04:13:47;47.58;;;18.20;;
71303;SDS011;59091;47.446;19.148;2022-12-20T04:18:40;40.97;;;16.15;;
71303;SDS011;59091;47.446;19.148;2022-12-20T04:21:08;43.63;;;17.08;;
71303;SDS011;59091;47.446;19.148;2022-12-20T04:23:35;45.25;;;19.33;;
71303;SDS011;59091;47.446;19.148;2022-12-20T04:26:01;38.03;;;16.83;;
71303;SDS011;59091;47.446;19.148;2022-12-20T04:28:28;40.38;;;17.88;;
71303;SDS011;59091;47.446;19.148;2022-12-20T04:30:54;42.53;;;17.08;;
71303;SDS011;59091;47.446;19.148;2022-12-20T04:33:19;36.97;;;16.17;;
71303;SDS011;59091;47.446;19.148;2022-12-20T04:35:45;38.10;;;17.13;;
71303;SDS011;59091;47.446;19.148;2022-12-20T04:38:10;37.78;;;16.98;;
71303;SDS011;59091;47.446;19.148;2022-12-20T04:40:36;42.15;;;17.73;;
71303;SDS011;59091;47.446;19.148;2022-12-20T04:43:01;38.67;;;16.67;;
71303;SDS011;59091;47.446;19.148;2022-12-20T04:45:27;43.03;;;17.98;;
71303;SDS011;59091;47.446;19.148;2022-12-20T04:47:52;42.53;;;16.88;;
71303;SDS011;59091;47.446;19.148;2022-12-20T04:50:17;40.30;;;17.40;;
71303;SDS011;59091;47.446;19.148;2022-12-20T04:52:43;41.45;;;18.13;;
71303;SDS011;59091;47.446;19.148;2022-12-20T04:55:27;37.60;;;16.45;;
71303;SDS011;59091;47.446;19.148;2022-12-20T04:57:53;35.80;;;16.42;;
71303;SDS011;59091;47.446;19.148;2022-12-20T05:00:18;43.50;;;16.13;;
71303;SDS011;59091;47.446;19.148;2022-12-20T05:02:44;41.85;;;17.65;;
71303;SDS011;59091;47.446;19.148;2022-12-20T05:05:10;41.42;;;15.82;;
71303;SDS011;59091;47.446;19.148;2022-12-20T05:07:36;45.53;;;17.33;;
71303;SDS011;59091;47.446;19.148;2022-12-20T05:10:01;43.30;;;17.00;;
71303;SDS011;59091;47.446;19.148;2022-12-20T05:12:27;37.45;;;17.08;;
71303;SDS011;59091;47.446;19.148;2022-12-20T05:14:52;43.78;;;18.40;;
71303;SDS011;59091;47.446;19.148;2022-12-20T05:17:17;45.90;;;17.60;;
71303;SDS011;59091;47.446;19.148;2022-12-20T05:19:43;37.22;;;17.45;;
71303;SDS011;59091;47.446;19.148;2022-12-20T05:22:09;47.25;;;18.52;;
71303;SDS011;59091;47.446;19.148;2022-12-20T05:24:53;41.50;;;18.20;;
71303;SDS011;59091;47.446;19.148;2022-12-20T05:27:37;39.08;;;16.00;;
71303;SDS011;59091;47.446;19.148;2022-12-20T05:30:03;40.85;;;16.67;;
71303;SDS011;59091;47.446;19.148;2022-12-20T05:32:29;40.50;;;15.88;;
71303;SDS011;59091;47.446;19.148;2022-12-20T05:34:54;39.97;;;17.58;;
71303;SDS011;59091;47.446;19.148;2022-12-20T05:37:19;41.70;;;18.63;;
71303;SDS011;59091;47.446;19.148;2022-12-20T05:39:45;43.08;;;18.58;;
71303;SDS011;59091;47.446;19.148;2022-12-20T05:42:10;43.38;;;17.33;;
71303;SDS011;59091;47.446;19.148;2022-12-20T05:44:36;39.10;;;18.10;;
71303;SDS011;59091;47.446;19.148;2022-12-20T05:47:01;40.92;;;17.92;;
71303;SDS011;59091;47.446;19.148;2022-12-20T05:49:27;37.00;;;15.07;;
71303;SDS011;59091;47.446;19.148;2022-12-20T05:51:52;44.78;;;17.80;;
71303;SDS011;59091;47.446;19.148;2022-12-20T05:54:17;44.75;;;17.20;;
71303;SDS011;59091;47.446;19.148;2022-12-20T05:56:43;40.58;;;18.05;;
71303;SDS011;59091;47.446;19.148;2022-12-20T05:59:08;39.70;;;16.42;;
71303;SDS011;59091;47.446;19.148;2022-12-20T06:01:34;41.15;;;17.85;;
71303;SDS011;59091;47.446;19.148;2022-12-20T06:03:59;38.30;;;17.10;;
71303;SDS011;59091;47.446;19.148;2022-12-20T06:06:25;44.67;;;17.42;;
71303;SDS011;59091;47.446;19.148;2022-12-20T06:08:50;39.85;;;17.00;;
71303;SDS011;59091;47.446;19.148;2022-12-20T06:11:15;38.53;;;16.38;;
71303;SDS011;59091;47.446;19.148;2022-12-20T06:13:41;37.72;;;16.95;;
71303;SDS011;59091;47.446;19.148;2022-12-20T06:16:06;34.75;;;15.70;;
71303;SDS011;59091;47.446;19.148;2022-12-20T06:18:32;37.90;;;16.67;;
71303;SDS011;59091;47.446;19.148;2022-12-20T06:20:57;38.53;;;16.35;;
71303;SDS011;59091;47.446;19.148;2022-12-20T06:23:22;37.85;;;15.80;;
71303;SDS011;59091;47.446;19.148;2022-12-20T06:25:48;39.67;;;16.95;;
71303;SDS011;59091;47.446;19.148;2022-12-20T06:28:13;34.92;;;16.25;;
71303;SDS011;59091;47.446;19.148;2022-12-20T06:30:40;42.45;;;17.20;;
71303;SDS011;59091;47.446;19.148;2022-12-20T06:33:05;41.90;;;16.70;;
71303;SDS011;59091;47.446;19.148;2022-12-20T06:35:31;47.72;;;16.50;;
71303;SDS011;59091;47.446;19.148;2022-12-20T06:37:56;34.30;;;15.07;;
71303;SDS011;59091;47.446;19.148;2022-12-20T06:40:22;40.95;;;16.67;;
71303;SDS011;59091;47.446;19.148;2022-12-20T06:42:47;38.38;;;16.83;;
71303;SDS011;59091;47.446;19.148;2022-12-20T06:45:14;33.33;;;17.38;;
71303;SDS011;59091;47.446;19.148;2022-12-20T06:47:40;37.00;;;16.70;;
71303;SDS011;59091;47.446;19.148;2022-12-20T06:50:06;38.20;;;16.35;;
71303;SDS011;59091;47.446;19.148;2022-12-20T06:52:31;41.47;;;17.58;;
71303;SDS011;59091;47.446;19.148;2022-12-20T06:54:57;47.22;;;18.45;;
71303;SDS011;59091;47.446;19.148;2022-12-20T06:57:22;41.38;;;17.67;;
71303;SDS011;59091;47.446;19.148;2022-12-20T06:59:48;44.08;;;17.80;;
71303;SDS011;59091;47.446;19.148;2022-12-20T07:02:13;44.58;;;17.08;;
71303;SDS011;59091;47.446;19.148;2022-12-20T07:04:39;42.67;;;17.63;;
71303;SDS011;59091;47.446;19.148;2022-12-20T07:07:04;40.30;;;17.67;;
71303;SDS011;59091;47.446;19.148;2022-12-20T07:09:30;44.03;;;18.83;;
71303;SDS011;59091;47.446;19.148;2022-12-20T07:11:55;46.00;;;18.02;;
71303;SDS011;59091;47.446;19.148;2022-12-20T07:14:21;47.38;;;19.48;;
71303;SDS011;59091;47.446;19.148;2022-12-20T07:16:46;49.78;;;17.90;;
71303;SDS011;59091;47.446;19.148;2022-12-20T07:19:12;39.47;;;17.20;;
71303;SDS011;59091;47.446;19.148;2022-12-20T07:21:39;39.35;;;17.75;;
71303;SDS011;59091;47.446;19.148;2022-12-20T07:24:05;37.70;;;18.58;;
71303;SDS011;59091;47.446;19.148;2022-12-20T07:26:31;40.95;;;18.15;;
71303;SDS011;59091;47.446;19.148;2022-12-20T07:28:56;45.88;;;17.98;;
71303;SDS011;59091;47.446;19.148;2022-12-20T07:31:22;39.92;;;17.30;;
71303;SDS011;59091;47.446;19.148;2022-12-20T07:33:47;38.50;;;17.30;;
71303;SDS011;59091;47.446;19.148;2022-12-20T07:36:13;32.80;;;15.10;;
71303;SDS011;59091;47.446;19.148;2022-12-20T07:38:40;33.45;;;15.75;;
71303;SDS011;59091;47.446;19.148;2022-12-20T07:41:13;36.33;;;16.75;;
71303;SDS011;59091;47.446;19.148;2022-12-20T07:43:40;41.13;;;16.10;;
71303;SDS011;59091;47.446;19.148;2022-12-20T07:46:06;39.20;;;16.33;;
71303;SDS011;59091;47.446;19.148;2022-12-20T07:48:32;33.03;;;15.15;;
71303;SDS011;59091;47.446;19.148;2022-12-20T07:51:00;37.53;;;14.50;;
71303;SDS011;59091;47.446;19.148;2022-12-20T07:53:29;32.40;;;14.85;;
71303;SDS011;59091;47.446;19.148;2022-12-20T07:55:57;33.63;;;13.88;;
71303;SDS011;59091;47.446;19.148;2022-12-20T07:58:25;36.13;;;15.55;;
71303;SDS011;59091;47.446;19.148;2022-12-20T08:00:51;34.80;;;14.88;;
71303;SDS011;59091;47.446;19.148;2022-12-20T08:03:18;40.72;;;14.65;;
71303;SDS011;59091;47.446;19.148;2022-12-20T08:05:50;32.55;;;15.10;;
71303;SDS011;59091;47.446;19.148;2022-12-20T08:08:20;31.70;;;14.95;;
71303;SDS011;59091;47.446;19.148;2022-12-20T08:10:46;33.75;;;15.32;;
71303;SDS011;59091;47.446;19.148;2022-12-20T08:13:12;33.63;;;13.05;;
71303;SDS011;59091;47.446;19.148;2022-12-20T08:15:38;33.30;;;14.82;;
71303;SDS011;59091;47.446;19.148;2022-12-20T08:18:03;35.72;;;15.48;;
71303;SDS011;59091;47.446;19.148;2022-12-20T08:20:30;34.45;;;14.77;;
71303;SDS011;59091;47.446;19.148;2022-12-20T08:22:55;32.65;;;14.88;;
71303;SDS011;59091;47.446;19.148;2022-12-20T08:25:21;33.72;;;14.55;;
71303;SDS011;59091;47.446;19.148;2022-12-20T08:27:47;38.45;;;15.10;;
71303;SDS011;59091;47.446;19.148;2022-12-20T08:30:12;37.25;;;15.00;;
71303;SDS011;59091;47.446;19.148;2022-12-20T08:32:38;29.23;;;14.45;;
71303;SDS011;59091;47.446;19.148;2022-12-20T08:35:04;37.85;;;15.63;;
71303;SDS011;59091;47.446;19.148;2022-12-20T08:37:30;33.67;;;14.23;;
71303;SDS011;59091;47.446;19.148;2022-12-20T08:39:55;31.52;;;15.15;;
71303;SDS011;59091;47.446;19.148;2022-12-20T08:42:21;33.05;;;14.50;;
71303;SDS011;59091;47.446;19.148;2022-12-20T08:44:46;33.08;;;15.68;;
71303;SDS011;59091;47.446;19.148;2022-12-20T08:47:12;34.15;;;15.45;;
71303;SDS011;59091;47.446;19.148;2022-12-20T08:49:37;32.47;;;14.30;;
71303;SDS011;59091;47.446;19.148;2022-12-20T08:52:02;35.38;;;15.20;;
71303;SDS011;59091;47.446;19.148;2022-12-20T08:54:28;34.78;;;14.18;;
71303;SDS011;59091;47.446;19.148;2022-12-20T08:56:53;34.67;;;14.32;;
71303;SDS011;59091;47.446;19.148;2022-12-20T08:59:19;35.97;;;15.68;;
71303;SDS011;59091;47.446;19.148;2022-12-20T09:01:44;36.00;;;14.85;;
71303;SDS011;59091;47.446;19.148;2022-12-20T09:04:10;28.52;;;13.95;;
71303;SDS011;59091;47.446;19.148;2022-12-20T09:06:36;30.95;;;14.88;;
71303;SDS011;59091;47.446;19.148;2022-12-20T09:09:02;44.88;;;16.35;;
71303;SDS011;59091;47.446;19.148;2022-12-20T09:11:28;29.60;;;14.05;;
71303;SDS011;59091;47.446;19.148;2022-12-20T09:13:54;28.02;;;13.48;;
71303;SDS011;59091;47.446;19.148;2022-12-20T09:16:22;30.90;;;15.00;;
71303;SDS011;59091;47.446;19.148;2022-12-20T09:18:52;38.35;;;15.45;;
71303;SDS011;59091;47.446;19.148;2022-12-20T09:21:19;37.42;;;15.63;;
71303;SDS011;59091;47.446;19.148;2022-12-20T09:23:45;39.38;;;13.65;;
71303;SDS011;59091;47.446;19.148;2022-12-20T09:26:13;29.63;;;12.73;;
71303;SDS011;59091;47.446;19.148;2022-12-20T09:28:40;33.15;;;12.60;;
71303;SDS011;59091;47.446;19.148;2022-12-20T09:31:07;31.45;;;13.43;;
71303;SDS011;59091;47.446;19.148;2022-12-20T09:33:38;50.42;;;14.02;;
71303;SDS011;59091;47.446;19.148;2022-12-20T09:36:04;30.38;;;13.48;;
71303;SDS011;59091;47.446;19.148;2022-12-20T09:38:31;32.97;;;13.90;;
71303;SDS011;59091;47.446;19.148;2022-12-20T09:40:58;31.65;;;13.68;;
71303;SDS011;59091;47.446;19.148;2022-12-20T09:43:26;29.63;;;13.23;;
71303;SDS011;59091;47.446;19.148;2022-12-20T09:45:53;36.50;;;14.93;;
71303;SDS011;59091;47.446;19.148;2022-12-20T09:48:25;28.05;;;13.18;;
71303;SDS011;59091;47.446;19.148;2022-12-20T09:59:28;26.38;;;12.55;;
71303;SDS011;59091;47.446;19.148;2022-12-20T10:01:57;22.75;;;10.00;;
71303;SDS011;59091;47.446;19.148;2022-12-20T10:04:26;29.02;;;12.43;;
71303;SDS011;59091;47.446;19.148;2022-12-20T10:25:28;26.02;;;11.40;;
71303;SDS011;59091;47.446;19.148;2022-12-20T10:27:56;29.20;;;12.45;;
71303;SDS011;59091;47.446;19.148;2022-12-20T10:30:27;28.13;;;13.40;;
71303;SDS011;59091;47.446;19.148;2022-12-20T10:32:54;27.92;;;12.38;;
71303;SDS011;59091;47.446;19.148;2022-12-20T10:38:00;27.33;;;13.43;;
71303;SDS011;59091;47.446;19.148;2022-12-20T10:40:30;30.55;;;13.32;;
71303;SDS011;59091;47.446;19.148;2022-12-20T10:42:58;27.13;;;12.70;;
71303;SDS011;59091;47.446;19.148;2022-12-20T10:45:37;32.47;;;13.32;;
71303;SDS011;59091;47.446;19.148;2022-12-20T10:51:03;27.17;;;12.38;;
71303;SDS011;59091;47.446;19.148;2022-12-20T10:53:52;26.15;;;12.95;;
71303;SDS011;59091;47.446;19.148;2022-12-20T10:56:19;24.02;;;12.15;;
71303;SDS011;59091;47.446;19.148;2022-12-20T11:01:22;28.25;;;13.18;;
71303;SDS011;59091;47.446;19.148;2022-12-20T11:04:01;30.50;;;13.50;;
71303;SDS011;59091;47.446;19.148;2022-12-20T11:06:38;32.03;;;15.32;;
71303;SDS011;59091;47.446;19.148;2022-12-20T11:09:11;31.52;;;12.35;;
71303;SDS011;59091;47.446;19.148;2022-12-20T11:11:56;25.80;;;12.38;;
71303;SDS011;59091;47.446;19.148;2022-12-20T11:14:24;26.15;;;13.20;;
71303;SDS011;59091;47.446;19.148;2022-12-20T11:16:52;25.10;;;12.40;;
71303;SDS011;59091;47.446;19.148;2022-12-20T11:22:17;23.15;;;12.25;;
71303;SDS011;59091;47.446;19.148;2022-12-20T11:30:36;28.17;;;12.88;;
71303;SDS011;59091;47.446;19.148;2022-12-20T11:33:57;25.60;;;12.65;;
71303;SDS011;59091;47.446;19.148;2022-12-20T11:36:39;28.83;;;12.32;;
71303;SDS011;59091;47.446;19.148;2022-12-20T11:39:19;27.50;;;13.90;;
71303;SDS011;59091;47.446;19.148;2022-12-20T11:47:34;32.13;;;15.20;;
71303;SDS011;59091;47.446;19.148;2022-12-20T11:55:45;26.27;;;12.68;;
71303;SDS011;59091;47.446;19.148;2022-12-20T11:58:27;30.63;;;13.32;;
71303;SDS011;59091;47.446;19.148;2022-12-20T12:05:57;26.98;;;13.48;;
71303;SDS011;59091;47.446;19.148;2022-12-20T12:08:29;27.63;;;13.30;;
71303;SDS011;59091;47.446;19.148;2022-12-20T12:11:11;28.42;;;13.07;;
71303;SDS011;59091;47.446;19.148;2022-12-20T12:13:38;30.33;;;13.38;;
71303;SDS011;59091;47.446;19.148;2022-12-20T12:16:13;29.10;;;13.02;;
71303;SDS011;59091;47.446;19.148;2022-12-20T12:18:43;28.73;;;13.55;;
71303;SDS011;59091;47.446;19.148;2022-12-20T12:26:29;32.50;;;13.60;;
71303;SDS011;59091;47.446;19.148;2022-12-20T12:28:58;29.15;;;13.18;;
71303;SDS011;59091;47.446;19.148;2022-12-20T12:49:51;29.80;;;11.80;;
71303;SDS011;59091;47.446;19.148;2022-12-20T12:52:25;30.83;;;13.07;;
71303;SDS011;59091;47.446;19.148;2022-12-20T12:55:00;31.88;;;13.00;;
71303;SDS011;59091;47.446;19.148;2022-12-20T12:57:26;29.38;;;13.40;;
71303;SDS011;59091;47.446;19.148;2022-12-20T12:59:51;26.98;;;12.82;;
71303;SDS011;59091;47.446;19.148;2022-12-20T13:07:45;29.95;;;13.15;;
71303;SDS011;59091;47.446;19.148;2022-12-20T13:17:46;25.40;;;12.63;;
71303;SDS011;59091;47.446;19.148;2022-12-20T13:20:24;28.33;;;13.80;;
71303;SDS011;59091;47.446;19.148;2022-12-20T13:25:48;32.25;;;13.55;;
71303;SDS011;59091;47.446;19.148;2022-12-20T13:33:21;26.23;;;13.30;;
71303;SDS011;59091;47.446;19.148;2022-12-20T13:35:55;28.00;;;13.35;;
71303;SDS011;59091;47.446;19.148;2022-12-20T13:39:11;31.70;;;13.95;;
71303;SDS011;59091;47.446;19.148;2022-12-20T13:43:59;27.40;;;12.68;;
71303;SDS011;59091;47.446;19.148;2022-12-20T13:49:11;34.88;;;13.23;;
71303;SDS011;59091;47.446;19.148;2022-12-20T13:51:44;29.92;;;13.07;;
71303;SDS011;59091;47.446;19.148;2022-12-20T13:54:16;28.02;;;13.32;;
71303;SDS011;59091;47.446;19.148;2022-12-20T13:56:47;31.02;;;14.68;;
71303;SDS011;59091;47.446;19.148;2022-12-20T13:59:19;28.77;;;13.30;;
71303;SDS011;59091;47.446;19.148;2022-12-20T14:01:59;26.27;;;11.68;;
71303;SDS011;59091;47.446;19.148;2022-12-20T14:04:40;26.85;;;13.15;;
71303;SDS011;59091;47.446;19.148;2022-12-20T14:07:12;28.90;;;13.27;;
71303;SDS011;59091;47.446;19.148;2022-12-20T14:09:42;28.55;;;13.00;;
71303;SDS011;59091;47.446;19.148;2022-12-20T14:12:13;25.58;;;11.55;;
71303;SDS011;59091;47.446;19.148;2022-12-20T14:14:47;21.25;;;11.43;;
71303;SDS011;59091;47.446;19.148;2022-12-20T14:25:02;31.00;;;15.25;;
71303;SDS011;59091;47.446;19.148;2022-12-20T14:27:32;33.42;;;14.88;;
71303;SDS011;59091;47.446;19.148;2022-12-20T14:30:00;32.05;;;14.77;;
71303;SDS011;59091;47.446;19.148;2022-12-20T14:32:25;34.78;;;15.70;;
71303;SDS011;59091;47.446;19.148;2022-12-20T14:34:52;40.22;;;17.05;;
71303;SDS011;59091;47.446;19.148;2022-12-20T14:37:33;38.65;;;16.02;;
71303;SDS011;59091;47.446;19.148;2022-12-20T14:42:35;34.85;;;16.67;;
71303;SDS011;59091;47.446;19.148;2022-12-20T14:45:03;42.28;;;18.58;;
71303;SDS011;59091;47.446;19.148;2022-12-20T14:47:46;44.03;;;18.13;;
71303;SDS011;59091;47.446;19.148;2022-12-20T14:50:23;48.20;;;19.08;;
71303;SDS011;59091;47.446;19.148;2022-12-20T14:55:18;41.13;;;17.55;;
71303;SDS011;59091;47.446;19.148;2022-12-20T14:57:50;48.65;;;18.73;;
71303;SDS011;59091;47.446;19.148;2022-12-20T15:10:48;55.42;;;22.35;;
71303;SDS011;59091;47.446;19.148;2022-12-20T15:13:18;48.90;;;20.05;;
71303;SDS011;59091;47.446;19.148;2022-12-20T15:15:44;40.45;;;18.27;;
71303;SDS011;59091;47.446;19.148;2022-12-20T15:18:11;46.78;;;20.10;;
71303;SDS011;59091;47.446;19.148;2022-12-20T15:20:38;46.13;;;21.00;;
71303;SDS011;59091;47.446;19.148;2022-12-20T15:23:04;41.80;;;19.90;;
71303;SDS011;59091;47.446;19.148;2022-12-20T15:25:33;47.50;;;20.15;;
71303;SDS011;59091;47.446;19.148;2022-12-20T15:28:01;47.00;;;19.50;;
71303;SDS011;59091;47.446;19.148;2022-12-20T15:30:26;43.05;;;21.00;;
71303;SDS011;59091;47.446;19.148;2022-12-20T15:32:51;49.08;;;20.70;;
71303;SDS011;59091;47.446;19.148;2022-12-20T15:35:17;45.45;;;20.20;;
71303;SDS011;59091;47.446;19.148;2022-12-20T15:37:42;43.70;;;20.40;;
71303;SDS011;59091;47.446;19.148;2022-12-20T15:40:12;47.35;;;20.38;;
71303;SDS011;59091;47.446;19.148;2022-12-20T15:42:40;50.28;;;21.27;;
71303;SDS011;59091;47.446;19.148;2022-12-20T15:45:11;52.28;;;20.80;;
71303;SDS011;59091;47.446;19.148;2022-12-20T15:47:38;48.58;;;21.33;;
71303;SDS011;59091;47.446;19.148;2022-12-20T15:50:03;47.90;;;21.75;;
71303;SDS011;59091;47.446;19.148;2022-12-20T15:52:30;48.58;;;23.23;;
71303;SDS011;59091;47.446;19.148;2022-12-20T15:54:55;49.75;;;21.00;;
71303;SDS011;59091;47.446;19.148;2022-12-20T15:57:21;50.67;;;22.42;;
71303;SDS011;59091;47.446;19.148;2022-12-20T15:59:46;49.45;;;22.25;;
71303;SDS011;59091;47.446;19.148;2022-12-20T16:02:20;49.20;;;20.77;;
71303;SDS011;59091;47.446;19.148;2022-12-20T16:04:48;45.92;;;18.98;;
71303;SDS011;59091;47.446;19.148;2022-12-20T16:07:14;40.65;;;18.85;;
71303;SDS011;59091;47.446;19.148;2022-12-20T16:09:40;42.83;;;20.45;;
71303;SDS011;59091;47.446;19.148;2022-12-20T16:12:16;39.08;;;19.13;;
71303;SDS011;59091;47.446;19.148;2022-12-20T16:14:45;44.10;;;18.80;;
71303;SDS011;59091;47.446;19.148;2022-12-20T16:17:14;43.05;;;18.38;;
71303;SDS011;59091;47.446;19.148;2022-12-20T16:19:40;43.00;;;18.90;;
71303;SDS011;59091;47.446;19.148;2022-12-20T16:22:13;46.97;;;19.52;;
71303;SDS011;59091;47.446;19.148;2022-12-20T16:24:44;46.22;;;19.45;;
71303;SDS011;59091;47.446;19.148;2022-12-20T16:27:10;41.88;;;19.45;;
71303;SDS011;59091;47.446;19.148;2022-12-20T16:29:35;43.78;;;19.92;;
71303;SDS011;59091;47.446;19.148;2022-12-20T16:32:01;43.67;;;19.67;;
71303;SDS011;59091;47.446;19.148;2022-12-20T16:34:26;42.90;;;19.38;;
71303;SDS011;59091;47.446;19.148;2022-12-20T16:36:52;44.67;;;20.33;;
71303;SDS011;59091;47.446;19.148;2022-12-20T16:39:17;47.38;;;20.58;;
71303;SDS011;59091;47.446;19.148;2022-12-20T16:41:43;44.85;;;21.00;;
71303;SDS011;59091;47.446;19.148;2022-12-20T16:44:12;46.00;;;21.13;;
71303;SDS011;59091;47.446;19.148;2022-12-20T16:46:39;42.25;;;20.17;;
71303;SDS011;59091;47.446;19.148;2022-12-20T16:49:05;54.03;;;21.80;;